createdAt,value
2023-12-10T00:04:30.017Z,987.06
2023-12-10T00:09:28.752Z,987.06
2023-12-10T00:14:28.675Z,987.11
2023-12-10T00:19:28.727Z,987.04
2023-12-10T00:24:28.594Z,986.99
2023-12-10T00:29:28.448Z,986.99
2023-12-10T00:34:28.434Z,987.05
2023-12-10T00:39:28.348Z,987.17
2023-12-10T00:44:28.935Z,987.18
2023-12-10T00:49:28.248Z,987.17
2023-12-10T00:54:28.112Z,987.11
2023-12-10T00:59:28.099Z,987.21
2023-12-10T01:04:28.157Z,987.15
2023-12-10T01:09:28.071Z,987.16
2023-12-10T01:14:27.909Z,987.30
2023-12-10T01:19:27.908Z,987.37
2023-12-10T01:24:27.880Z,987.34
2023-12-10T01:29:27.713Z,987.48
2023-12-10T01:34:28.415Z,987.49
2023-12-10T01:39:27.606Z,987.59
2023-12-10T01:44:27.621Z,987.51
2023-12-10T01:49:27.507Z,987.43
2023-12-10T01:54:27.896Z,987.51
2023-12-10T01:59:27.283Z,987.64
2023-12-10T02:04:27.276Z,987.70
2023-12-10T02:09:27.144Z,987.67
2023-12-10T02:14:27.087Z,987.75
2023-12-10T02:19:28.079Z,987.64
2023-12-10T02:24:27.123Z,987.85
2023-12-10T02:29:26.952Z,987.82
2023-12-10T02:34:26.926Z,987.78
2023-12-10T02:39:26.877Z,987.71
2023-12-10T02:44:26.918Z,987.81
2023-12-10T02:49:26.767Z,987.87
2023-12-10T02:54:26.659Z,987.79
2023-12-10T02:59:26.697Z,987.90
2023-12-10T03:04:26.441Z,987.87
2023-12-10T03:09:26.408Z,988.10
2023-12-10T03:14:26.334Z,987.94
2023-12-10T03:19:26.391Z,988.29
2023-12-10T03:24:26.226Z,987.90
2023-12-10T03:29:26.090Z,988.44
2023-12-10T03:34:26.167Z,988.18
2023-12-10T03:39:25.998Z,988.31
2023-12-10T03:44:25.853Z,988.41
2023-12-10T03:49:26.095Z,988.62
2023-12-10T03:54:25.823Z,988.62
2023-12-10T03:59:25.675Z,988.81
2023-12-10T04:04:25.637Z,988.87
2023-12-10T04:09:25.967Z,988.96
2023-12-10T04:14:25.523Z,989.02
2023-12-10T04:19:25.465Z,988.96
2023-12-10T04:24:25.346Z,989.14
2023-12-10T04:29:25.248Z,989.10
2023-12-10T04:34:25.258Z,989.29
2023-12-10T04:39:25.133Z,989.38
2023-12-10T04:44:25.061Z,989.48
2023-12-10T04:49:25.193Z,989.46
2023-12-10T04:54:25.104Z,989.36
2023-12-10T04:59:24.950Z,989.49
2023-12-10T05:04:24.870Z,989.58
2023-12-10T05:09:24.885Z,989.66
2023-12-10T05:14:24.699Z,989.72
2023-12-10T05:19:25.360Z,989.92
2023-12-10T05:24:24.602Z,990.02
2023-12-10T05:29:24.614Z,990.15
2023-12-10T05:34:24.628Z,990.13
2023-12-10T05:39:24.368Z,990.25
2023-12-10T05:44:24.299Z,990.32
2023-12-10T05:49:24.729Z,990.37
2023-12-10T05:54:24.210Z,990.43
2023-12-10T05:59:24.058Z,990.36
2023-12-10T06:04:24.232Z,990.49
2023-12-10T06:09:23.997Z,990.53
2023-12-10T06:14:23.843Z,990.59
2023-12-10T06:19:24.085Z,990.76
2023-12-10T06:24:23.762Z,990.79
2023-12-10T06:29:23.669Z,990.73
2023-12-10T06:34:23.798Z,990.79
2023-12-10T06:39:23.845Z,990.97
2023-12-10T06:44:23.551Z,991.16
2023-12-10T06:49:23.507Z,991.31
2023-12-10T06:54:23.422Z,991.37
2023-12-10T06:59:23.296Z,991.47
2023-12-10T07:04:23.231Z,991.65
2023-12-10T07:09:23.234Z,991.73
2023-12-10T07:14:23.372Z,991.74
2023-12-10T07:19:23.224Z,991.87
2023-12-10T07:24:23.013Z,991.82
2023-12-10T07:29:23.164Z,991.89
2023-12-10T07:34:23.093Z,992.04
2023-12-10T07:39:22.758Z,992.15
2023-12-10T07:44:23.044Z,992.23
2023-12-10T07:49:24.186Z,992.28
2023-12-10T07:54:22.606Z,992.32
2023-12-10T07:59:24.414Z,992.28
2023-12-10T08:04:22.629Z,992.29
2023-12-10T08:09:22.369Z,992.18
2023-12-10T08:14:23.776Z,992.28
2023-12-10T08:19:22.372Z,992.30
2023-12-10T08:24:22.467Z,992.38
2023-12-10T08:29:22.156Z,992.29
2023-12-10T08:34:22.183Z,992.47
2023-12-10T08:39:24.312Z,992.45
2023-12-10T08:44:21.913Z,992.36
2023-12-10T08:49:22.024Z,992.40
2023-12-10T08:54:23.745Z,992.49
2023-12-10T08:59:21.950Z,992.39
2023-12-10T09:04:21.782Z,992.58
2023-12-10T09:09:21.683Z,992.50
2023-12-10T09:14:21.516Z,992.67
2023-12-10T09:19:21.441Z,992.75
2023-12-10T09:24:21.396Z,992.67
2023-12-10T09:29:23.037Z,992.68
2023-12-10T09:34:23.368Z,992.77
2023-12-10T09:39:21.141Z,992.80
2023-12-10T09:44:21.214Z,992.79
2023-12-10T09:49:21.135Z,992.76
2023-12-10T09:54:22.008Z,992.86
2023-12-10T09:59:20.866Z,992.86
2023-12-10T10:04:21.155Z,992.91
2023-12-10T10:09:28.531Z,992.96
2023-12-10T10:14:21.727Z,992.94
2023-12-10T10:19:20.791Z,993.01
2023-12-10T10:24:22.585Z,992.99
2023-12-10T10:29:20.550Z,993.12
2023-12-10T10:34:20.651Z,993.04
2023-12-10T10:39:20.354Z,993.09
2023-12-10T10:44:21.989Z,993.13
2023-12-10T10:49:20.263Z,993.07
2023-12-10T10:54:20.179Z,993.14
2023-12-10T10:59:20.043Z,993.19
2023-12-10T11:04:20.178Z,993.11
2023-12-10T11:09:19.966Z,993.08
2023-12-10T11:14:19.864Z,993.11
2023-12-10T11:19:20.010Z,993.18
2023-12-10T11:24:19.817Z,993.20
2023-12-10T11:29:19.670Z,993.11
2023-12-10T11:34:19.699Z,992.99
2023-12-10T11:39:19.676Z,993.12
2023-12-10T11:44:19.534Z,993.16
2023-12-10T11:49:19.527Z,992.99
2023-12-10T11:54:19.383Z,993.09
2023-12-10T11:59:20.357Z,993.00
2023-12-10T12:04:19.710Z,992.97
2023-12-10T12:09:19.275Z,993.03
2023-12-10T12:14:19.432Z,992.91
2023-12-10T12:19:19.183Z,992.91
2023-12-10T12:24:18.969Z,992.91
2023-12-10T12:29:18.906Z,992.88
2023-12-10T12:34:19.001Z,993.05
2023-12-10T12:39:19.722Z,993.02
2023-12-10T12:44:18.647Z,993.09
2023-12-10T12:49:18.751Z,993.06
2023-12-10T12:54:18.967Z,993.12
2023-12-10T12:59:18.458Z,992.95
2023-12-10T13:04:18.759Z,992.93
2023-12-10T13:09:18.421Z,992.94
2023-12-10T13:14:18.356Z,992.93
2023-12-10T13:19:18.308Z,993.02
2023-12-10T13:24:18.267Z,993.02
2023-12-10T13:29:18.167Z,993.05
2023-12-10T13:34:18.168Z,993.17
2023-12-10T13:39:17.925Z,993.32
2023-12-10T13:44:17.864Z,993.21
2023-12-10T13:49:17.906Z,993.36
2023-12-10T13:54:17.762Z,993.30
2023-12-10T13:59:17.740Z,993.29
2023-12-10T14:04:17.739Z,993.33
2023-12-10T14:09:17.535Z,993.38
2023-12-10T14:14:18.247Z,993.42
2023-12-10T14:19:17.611Z,993.50
2023-12-10T14:24:17.432Z,993.58
2023-12-10T14:29:17.852Z,993.63
2023-12-10T14:34:17.346Z,993.65
2023-12-10T14:39:17.413Z,993.59
2023-12-10T14:44:17.082Z,993.71
2023-12-10T14:49:20.083Z,993.86
2023-12-10T14:54:16.954Z,993.78
2023-12-10T14:59:17.015Z,993.83
2023-12-10T15:04:17.013Z,993.95
2023-12-10T15:09:16.766Z,994.05
2023-12-10T15:14:16.667Z,993.92
2023-12-10T15:19:16.778Z,993.85
2023-12-10T15:24:16.534Z,993.93
2023-12-10T15:29:16.443Z,994.00
2023-12-10T15:34:16.542Z,994.03
2023-12-10T15:39:17.256Z,993.97
2023-12-10T15:44:16.264Z,994.11
2023-12-10T15:49:36.098Z,994.09
2023-12-10T15:54:16.081Z,994.10
2023-12-10T15:59:16.303Z,994.13
2023-12-10T16:04:16.060Z,994.24
2023-12-10T16:09:16.323Z,994.19
2023-12-10T16:14:16.108Z,994.14
2023-12-10T16:19:15.926Z,994.08
2023-12-10T16:24:16.450Z,994.13
2023-12-10T16:29:15.613Z,994.06
2023-12-10T16:34:15.924Z,994.07
2023-12-10T16:39:15.708Z,994.07
2023-12-10T16:44:16.204Z,994.02
2023-12-10T16:49:15.511Z,993.93
2023-12-10T16:54:15.364Z,993.87
2023-12-10T16:59:15.219Z,993.86
2023-12-10T17:04:15.178Z,993.82
2023-12-10T17:09:15.104Z,993.79
2023-12-10T17:14:15.076Z,993.85
2023-12-10T17:19:17.718Z,993.77
2023-12-10T17:24:14.933Z,993.91
2023-12-10T17:29:15.642Z,993.85
2023-12-10T17:34:15.036Z,993.78
2023-12-10T17:39:15.194Z,993.77
2023-12-10T17:44:14.674Z,993.64
2023-12-10T17:49:14.800Z,993.60
2023-12-10T17:54:14.780Z,993.60
2023-12-10T17:59:14.487Z,993.53
2023-12-10T18:04:15.355Z,993.60
2023-12-10T18:09:15.022Z,993.54
2023-12-10T18:14:14.209Z,993.53
2023-12-10T18:19:14.347Z,993.61
2023-12-10T18:24:14.419Z,993.62
2023-12-10T18:29:14.133Z,993.53
2023-12-10T18:34:14.027Z,993.45
2023-12-10T18:39:13.893Z,993.46
2023-12-10T18:44:13.839Z,993.53
2023-12-10T18:49:14.013Z,993.60
2023-12-10T18:54:13.953Z,993.47
2023-12-10T18:59:13.707Z,993.38
2023-12-10T19:04:14.819Z,993.29
2023-12-10T19:09:13.523Z,993.38
2023-12-10T19:14:14.375Z,993.24
2023-12-10T19:19:13.690Z,993.21
2023-12-10T19:24:13.306Z,993.16
2023-12-10T19:29:13.239Z,993.07
2023-12-10T19:34:13.381Z,993.13
2023-12-10T19:39:14.040Z,993.03
2023-12-10T19:44:13.176Z,992.93
2023-12-10T19:49:13.026Z,992.97
2023-12-10T19:54:12.922Z,992.99
2023-12-10T19:59:13.085Z,992.96
2023-12-10T20:04:12.925Z,992.80
2023-12-10T20:09:12.774Z,992.94
2023-12-10T20:14:12.629Z,992.79
2023-12-10T20:19:12.729Z,992.66
2023-12-10T20:24:22.169Z,992.55
2023-12-10T20:29:13.589Z,992.36
2023-12-10T20:34:23.637Z,992.37
2023-12-10T20:39:13.312Z,992.18
2023-12-10T20:44:12.233Z,992.15
2023-12-10T20:49:12.318Z,991.98
2023-12-10T20:54:12.166Z,991.87
2023-12-10T20:59:12.073Z,991.84
2023-12-10T21:04:12.119Z,991.63
2023-12-10T21:09:11.966Z,991.51
2023-12-10T21:14:11.876Z,991.33
2023-12-10T21:19:11.954Z,991.23
2023-12-10T21:24:11.775Z,991.23
2023-12-10T21:29:11.702Z,991.22
2023-12-10T21:34:11.687Z,991.28
2023-12-10T21:39:11.551Z,991.37
2023-12-10T21:44:11.461Z,991.48
2023-12-10T21:49:11.581Z,991.29
2023-12-10T21:54:11.294Z,990.79
2023-12-10T21:59:11.246Z,990.68
2023-12-10T22:04:11.267Z,990.68
2023-12-10T22:09:11.220Z,990.31
2023-12-10T22:14:11.054Z,989.69
2023-12-10T22:19:11.181Z,989.91
2023-12-10T22:24:10.896Z,989.89
2023-12-10T22:29:10.861Z,989.77
2023-12-10T22:34:10.817Z,989.82
2023-12-10T22:39:10.697Z,989.96
2023-12-10T22:44:10.631Z,990.13
2023-12-10T22:49:10.625Z,990.11
2023-12-10T22:54:10.522Z,989.89
2023-12-10T22:59:10.434Z,990.06
2023-12-10T23:04:10.398Z,989.92
2023-12-10T23:09:10.373Z,989.74
2023-12-10T23:14:10.261Z,989.61
2023-12-10T23:19:10.338Z,989.60
2023-12-10T23:24:10.174Z,989.51
2023-12-10T23:29:10.054Z,989.45
2023-12-10T23:34:10.035Z,989.52
2023-12-10T23:39:09.961Z,989.51
2023-12-10T23:44:09.914Z,989.41
2023-12-10T23:49:09.905Z,989.44
2023-12-10T23:54:09.725Z,989.22
2023-12-10T23:59:09.721Z,988.87
